createdAt,value
2024-04-19T00:01:58.616Z,5.45
2024-04-19T00:04:31.740Z,6.05
2024-04-19T00:06:59.145Z,4.85
2024-04-19T00:09:46.914Z,5.00
2024-04-19T00:12:14.399Z,5.93
2024-04-19T00:14:44.610Z,5.13
2024-04-19T00:17:13.948Z,6.20
2024-04-19T00:19:46.871Z,6.35
2024-04-19T00:22:14.853Z,5.85
2024-04-19T00:24:44.854Z,6.38
2024-04-19T00:27:12.360Z,6.10
2024-04-19T00:29:49.063Z,6.25
2024-04-19T00:32:17.053Z,6.68
2024-04-19T00:34:49.645Z,7.13
2024-04-19T00:39:47.160Z,7.40
2024-04-19T00:42:14.569Z,8.45
2024-04-19T00:44:45.241Z,8.32
2024-04-19T00:47:12.775Z,8.20
2024-04-19T00:49:45.103Z,9.50
2024-04-19T00:52:15.372Z,10.50
2024-04-19T00:54:45.578Z,9.85
2024-04-19T00:57:13.394Z,8.55
2024-04-19T00:59:43.655Z,9.95
2024-04-19T01:02:11.163Z,9.10
2024-04-19T01:04:41.474Z,9.05
2024-04-19T01:07:08.734Z,8.80
2024-04-19T01:09:41.989Z,8.57
2024-04-19T01:12:10.358Z,9.25
2024-04-19T01:14:40.853Z,9.00
2024-04-19T01:17:10.813Z,9.23
2024-04-19T01:19:38.232Z,9.40
2024-04-19T01:22:08.718Z,10.55
2024-04-19T01:24:40.799Z,10.32
2024-04-19T01:27:13.344Z,9.65
2024-04-19T01:32:11.022Z,9.75
2024-04-19T01:34:38.330Z,8.02
2024-04-19T01:37:08.598Z,8.95
2024-04-19T01:39:36.023Z,8.30
2024-04-19T01:42:06.054Z,8.20
2024-04-19T01:44:35.874Z,7.38
2024-04-19T01:47:06.088Z,7.68
2024-04-19T01:49:33.530Z,9.73
2024-04-19T01:52:03.648Z,9.43
2024-04-19T01:54:30.876Z,10.13
2024-04-19T01:57:03.121Z,7.90
2024-04-19T01:59:30.386Z,7.75
2024-04-19T02:02:03.039Z,7.78
2024-04-19T02:07:00.254Z,5.85
2024-04-19T02:09:34.960Z,5.05
2024-04-19T02:12:05.062Z,5.90
2024-04-19T02:14:33.379Z,5.45
2024-04-19T02:17:06.163Z,5.40
2024-04-19T02:19:37.554Z,6.53
2024-04-19T02:22:07.798Z,5.55
2024-04-19T02:24:35.872Z,6.38
2024-04-19T02:27:18.843Z,6.93
2024-04-19T02:30:04.796Z,6.50
2024-04-19T02:32:37.619Z,7.15
2024-04-19T02:37:37.499Z,7.78
2024-04-19T02:40:11.366Z,7.50
2024-04-19T02:42:41.296Z,6.90
2024-04-19T02:45:11.716Z,7.63
2024-04-19T02:47:44.222Z,6.65
2024-04-19T02:50:11.472Z,7.47
2024-04-19T02:52:41.341Z,7.68
2024-04-19T02:55:11.501Z,7.95
2024-04-19T02:57:41.492Z,5.68
2024-04-19T03:00:12.075Z,6.55
2024-04-19T03:02:50.780Z,6.75
2024-04-19T03:07:51.224Z,5.45
2024-04-19T03:10:21.733Z,6.55
2024-04-19T03:12:51.740Z,6.88
2024-04-19T03:15:21.823Z,5.53
2024-04-19T03:17:54.391Z,5.35
2024-04-19T03:22:53.865Z,5.50
2024-04-19T03:25:23.716Z,5.18
2024-04-19T03:27:53.996Z,4.28
2024-04-19T03:30:30.836Z,4.28
2024-04-19T03:33:03.636Z,4.70
2024-04-19T03:35:33.703Z,4.35
2024-04-19T03:38:03.803Z,4.97
2024-04-19T03:40:33.917Z,5.18
2024-04-19T03:43:03.821Z,3.80
2024-04-19T03:45:46.014Z,3.92
2024-04-19T03:48:19.132Z,4.32
2024-04-19T03:50:49.344Z,5.03
2024-04-19T03:53:19.184Z,3.75
2024-04-19T03:55:49.862Z,3.70
2024-04-19T03:58:19.811Z,4.30
2024-04-19T04:00:51.232Z,4.28
2024-04-19T04:03:23.942Z,3.47
2024-04-19T04:05:55.063Z,4.90
2024-04-19T04:08:24.985Z,5.40
2024-04-19T04:10:54.941Z,4.40
2024-04-19T04:13:24.908Z,4.63
2024-04-19T04:15:54.964Z,3.42
2024-04-19T04:18:28.238Z,3.00
2024-04-19T04:20:58.243Z,3.35
2024-04-19T04:23:28.063Z,4.05
2024-04-19T04:25:58.055Z,3.13
2024-04-19T04:28:27.991Z,3.25
2024-04-19T04:30:58.359Z,3.42
2024-04-19T04:33:30.887Z,4.05
2024-04-19T04:36:01.380Z,4.32
2024-04-19T04:38:31.439Z,4.30
2024-04-19T04:41:01.316Z,3.88
2024-04-19T04:43:31.215Z,4.97
2024-04-19T04:46:01.131Z,3.97
2024-04-19T04:48:34.032Z,3.42
2024-04-19T04:51:05.056Z,3.42
2024-04-19T04:53:35.933Z,3.80
2024-04-19T04:56:06.043Z,3.40
2024-04-19T04:58:36.129Z,3.00
2024-04-19T05:01:06.223Z,3.40
2024-04-19T05:03:39.257Z,3.00
2024-04-19T05:06:09.327Z,2.80
2024-04-19T05:08:39.485Z,2.83
2024-04-19T05:11:09.609Z,3.10
2024-04-19T05:13:39.535Z,2.75
2024-04-19T05:16:09.750Z,3.08
2024-04-19T05:18:42.541Z,2.90
2024-04-19T05:21:12.552Z,3.53
2024-04-19T05:23:42.900Z,3.80
2024-04-19T05:26:12.963Z,3.90
2024-04-19T05:28:42.871Z,3.17
2024-04-19T05:31:12.903Z,2.90
2024-04-19T05:33:45.841Z,3.72
2024-04-19T05:36:15.896Z,4.40
2024-04-19T05:38:46.238Z,3.80
2024-04-19T05:41:16.219Z,3.67
2024-04-19T05:43:49.705Z,3.50
2024-04-19T05:46:19.541Z,3.47
2024-04-19T05:48:52.140Z,3.60
2024-04-19T05:53:51.938Z,3.50
2024-04-19T05:56:21.858Z,4.30
2024-04-19T05:58:51.757Z,3.40
2024-04-19T06:01:21.745Z,5.55
2024-04-19T06:03:54.783Z,3.92
2024-04-19T06:06:24.688Z,4.10
2024-04-19T06:08:55.175Z,4.00
2024-04-19T06:11:26.387Z,3.40
2024-04-19T06:13:56.435Z,3.35
2024-04-19T06:16:26.323Z,3.35
2024-04-19T06:18:59.094Z,3.47
2024-04-19T06:21:29.191Z,3.08
2024-04-19T06:23:59.101Z,2.60
2024-04-19T06:26:29.060Z,3.67
2024-04-19T06:28:59.019Z,3.75
2024-04-19T06:31:28.961Z,3.47
2024-04-19T06:34:01.627Z,4.45
2024-04-19T06:39:04.911Z,3.60
2024-04-19T06:41:36.286Z,3.72
2024-04-19T06:44:07.529Z,4.07
2024-04-19T06:46:37.376Z,4.20
2024-04-19T06:49:10.173Z,3.63
2024-04-19T06:51:43.960Z,3.03
2024-04-19T06:54:14.482Z,2.92
2024-04-19T06:56:44.459Z,2.65
2024-04-19T06:59:14.527Z,3.75
2024-04-19T07:01:44.810Z,4.07
2024-04-19T07:04:17.677Z,3.63
2024-04-19T07:06:48.465Z,5.28
2024-04-19T07:09:18.722Z,4.68
2024-04-19T07:11:49.298Z,3.78
2024-04-19T07:14:19.262Z,3.65
2024-04-19T07:16:49.174Z,3.60
2024-04-19T07:19:21.658Z,3.53
2024-04-19T07:21:51.570Z,3.58
2024-04-19T07:24:22.647Z,3.38
2024-04-19T07:26:53.479Z,3.38
2024-04-19T07:29:23.430Z,3.72
2024-04-19T07:31:53.689Z,3.72
2024-04-19T07:34:28.339Z,4.32
2024-04-19T07:36:58.227Z,4.72
2024-04-19T07:39:28.099Z,4.57
2024-04-19T07:41:58.125Z,4.68
2024-04-19T07:44:28.097Z,6.20
2024-04-19T07:47:00.763Z,5.95
2024-04-19T07:49:34.103Z,6.28
2024-04-19T07:54:35.318Z,6.40
2024-04-19T07:57:05.169Z,5.32
2024-04-19T07:59:35.045Z,5.35
2024-04-19T08:02:05.294Z,5.85
2024-04-19T08:04:38.220Z,5.65
2024-04-19T08:07:09.654Z,5.82
2024-04-19T08:09:42.500Z,6.50
2024-04-19T08:12:12.960Z,6.50
2024-04-19T08:14:43.045Z,5.95
2024-04-19T08:17:13.035Z,6.03
2024-04-19T08:19:45.878Z,5.97
2024-04-19T08:22:15.734Z,7.18
2024-04-19T08:24:45.830Z,7.55
2024-04-19T08:27:15.713Z,8.48
2024-04-19T08:29:45.504Z,9.30
2024-04-19T08:32:15.388Z,8.77
2024-04-19T08:34:51.962Z,8.38
2024-04-19T08:37:22.134Z,9.00
2024-04-19T08:39:54.575Z,7.88
2024-04-19T08:42:24.688Z,7.30
2024-04-19T08:44:55.150Z,8.10
2024-04-19T08:47:25.351Z,8.52
2024-04-19T08:49:59.402Z,7.82
2024-04-19T08:52:50.505Z,7.10
2024-04-19T08:55:21.948Z,7.85
2024-04-19T08:57:52.673Z,9.02
2024-04-19T09:00:23.535Z,8.20
2024-04-19T09:02:53.562Z,8.32
2024-04-19T09:05:26.380Z,8.05
2024-04-19T09:07:56.502Z,8.13
2024-04-19T09:10:26.713Z,8.50
2024-04-19T09:12:56.702Z,9.57
2024-04-19T09:15:29.584Z,10.32
2024-04-19T09:18:02.747Z,9.23
2024-04-19T09:20:35.302Z,10.95
2024-04-19T09:23:05.141Z,10.52
2024-04-19T09:25:35.414Z,10.32
2024-04-19T09:28:05.389Z,11.23
2024-04-19T09:30:35.610Z,10.45
2024-04-19T09:33:06.001Z,11.30
2024-04-19T09:35:39.550Z,11.30
2024-04-19T09:38:10.068Z,9.70
2024-04-19T09:40:40.126Z,9.27
2024-04-19T09:43:10.862Z,10.25
2024-04-19T09:45:45.557Z,10.80
2024-04-19T09:48:18.844Z,10.75
2024-04-19T09:50:53.148Z,8.98
2024-04-19T09:53:30.904Z,12.65
2024-04-19T09:56:09.503Z,10.52
2024-04-19T09:58:39.817Z,10.43
2024-04-19T10:01:09.821Z,9.73
2024-04-19T10:03:40.576Z,12.20
2024-04-19T10:06:17.660Z,11.68
2024-04-19T10:08:48.906Z,11.32
2024-04-19T10:11:20.369Z,9.73
2024-04-19T10:13:51.179Z,12.18
2024-04-19T10:16:21.014Z,13.23
2024-04-19T10:18:51.601Z,12.88
2024-04-19T10:21:29.035Z,10.45
2024-04-19T10:23:59.183Z,11.00
2024-04-19T10:26:30.511Z,9.88
2024-04-19T10:28:57.964Z,10.32
2024-04-19T10:31:27.926Z,4.90
2024-04-19T10:34:00.245Z,2.35
2024-04-19T10:36:36.477Z,2.75
2024-04-19T10:39:06.715Z,2.33
2024-04-19T10:41:36.815Z,2.65
2024-04-19T10:44:06.760Z,2.00
2024-04-19T10:46:37.189Z,1.75
2024-04-19T10:49:08.192Z,1.23
2024-04-19T10:51:40.795Z,1.65
2024-04-19T10:54:12.242Z,1.50
2024-04-19T10:56:44.028Z,1.67
2024-04-19T10:59:13.875Z,2.00
2024-04-19T11:01:45.907Z,1.58
2024-04-19T11:04:16.416Z,2.05
2024-04-19T11:06:49.136Z,2.10
2024-04-19T11:11:50.282Z,2.40
2024-04-19T11:14:20.359Z,2.30
2024-04-19T11:16:50.355Z,2.53
2024-04-19T11:19:20.285Z,4.30
2024-04-19T11:21:55.005Z,3.70
2024-04-19T11:24:25.038Z,3.67
2024-04-19T11:26:55.071Z,3.38
2024-04-19T11:29:25.439Z,4.03
2024-04-19T11:31:55.694Z,4.60
2024-04-19T11:34:31.916Z,3.70
2024-04-19T11:37:05.746Z,3.90
2024-04-19T11:39:36.092Z,3.67
2024-04-19T11:42:06.711Z,3.53
2024-04-19T11:44:36.987Z,2.95
2024-04-19T11:47:08.212Z,2.22
2024-04-19T11:49:38.784Z,2.35
2024-04-19T11:52:12.723Z,2.00
2024-04-19T11:54:45.032Z,2.45
2024-04-19T11:57:15.114Z,1.77
2024-04-19T11:59:45.022Z,2.40
2024-04-19T12:02:14.936Z,1.50
2024-04-19T12:04:45.568Z,2.40
2024-04-19T12:07:18.989Z,2.35
2024-04-19T12:09:49.066Z,2.22
2024-04-19T12:13:08.727Z,2.55
2024-04-19T12:15:58.276Z,2.40
2024-04-19T12:18:03.265Z,2.63
2024-04-19T12:20:46.620Z,2.67
2024-04-19T12:23:24.513Z,2.40
2024-04-19T12:25:55.655Z,2.72
2024-04-19T12:28:26.784Z,2.70
2024-04-19T12:30:55.850Z,3.08
2024-04-19T12:33:25.963Z,2.88
2024-04-19T12:35:56.016Z,3.00
2024-04-19T12:38:29.100Z,3.60
2024-04-19T12:40:59.643Z,3.70
2024-04-19T12:43:29.754Z,2.60
2024-04-19T12:46:00.048Z,2.10
2024-04-19T12:48:30.153Z,2.58
2024-04-19T12:51:00.679Z,2.13
2024-04-19T12:53:33.236Z,2.60
2024-04-19T12:56:03.682Z,1.55
2024-04-19T12:58:33.612Z,1.40
2024-04-19T13:01:05.503Z,1.77
2024-04-19T13:03:36.017Z,2.03
2024-04-19T13:06:06.471Z,2.13
2024-04-19T13:08:39.550Z,2.30
2024-04-19T13:11:09.495Z,2.45
2024-04-19T13:13:51.356Z,3.03
2024-04-19T13:16:21.366Z,2.80
2024-04-19T13:18:51.450Z,3.08
2024-04-19T13:21:23.504Z,2.22
2024-04-19T13:23:56.056Z,2.97
2024-04-19T13:28:57.765Z,2.95
2024-04-19T13:31:27.779Z,3.47
2024-04-19T13:33:57.763Z,2.88
2024-04-19T13:36:27.791Z,4.18
2024-04-19T13:39:00.490Z,3.13
2024-04-19T13:41:30.455Z,2.80
2024-04-19T13:44:01.775Z,2.17
2024-04-19T13:46:31.887Z,1.92
2024-04-19T13:49:01.766Z,2.20
2024-04-19T13:51:31.782Z,2.67
2024-04-19T13:54:04.531Z,2.95
2024-04-19T13:56:34.653Z,1.85
2024-04-19T13:59:04.876Z,1.27
2024-04-19T14:01:35.031Z,1.40
2024-04-19T14:04:04.978Z,1.50
2024-04-19T14:06:35.073Z,1.23
2024-04-19T14:09:08.956Z,1.40
2024-04-19T14:11:39.263Z,1.35
2024-04-19T14:14:09.437Z,1.10
2024-04-19T14:16:39.424Z,1.55
2024-04-19T14:19:09.479Z,1.63
2024-04-19T14:21:39.661Z,1.00
2024-04-19T14:24:12.788Z,1.40
2024-04-19T14:26:43.084Z,1.05
2024-04-19T14:29:13.018Z,1.88
2024-04-19T14:31:42.948Z,1.17
2024-04-19T14:34:12.799Z,1.60
2024-04-19T14:36:43.132Z,1.30
2024-04-19T14:39:16.003Z,1.40
2024-04-19T14:41:47.791Z,1.67
2024-04-19T14:44:17.975Z,1.67
2024-04-19T14:46:47.947Z,1.33
2024-04-19T14:49:18.070Z,1.30
2024-04-19T14:51:50.598Z,1.20
2024-04-19T14:54:23.165Z,1.63
2024-04-19T14:56:55.548Z,1.42
2024-04-19T14:59:26.158Z,1.55
2024-04-19T15:01:56.758Z,2.03
2024-04-19T15:04:27.065Z,1.33
2024-04-19T15:06:57.306Z,1.85
2024-04-19T15:09:29.951Z,2.45
2024-04-19T15:14:29.454Z,1.40
2024-04-19T15:17:00.510Z,1.63
2024-04-19T15:19:32.797Z,1.70
2024-04-19T15:22:04.422Z,1.60
2024-04-19T15:24:37.039Z,1.58
2024-04-19T15:29:36.833Z,1.55
2024-04-19T15:32:07.125Z,1.80
2024-04-19T15:34:46.903Z,1.98
2024-04-19T15:37:18.217Z,1.83
2024-04-19T15:39:51.654Z,2.28
2024-04-19T15:42:21.859Z,1.67
2024-04-19T15:44:52.057Z,2.03
2024-04-19T15:47:22.175Z,2.10
2024-04-19T15:49:52.290Z,2.40
2024-04-19T15:52:22.853Z,2.50
2024-04-19T15:54:55.615Z,1.83
2024-04-19T15:57:23.207Z,1.73
2024-04-19T15:59:54.618Z,2.38
2024-04-19T16:02:24.574Z,2.45
2024-04-19T16:04:54.807Z,2.85
2024-04-19T16:07:24.984Z,2.17
2024-04-19T16:09:57.975Z,1.83
2024-04-19T16:12:31.161Z,1.92
2024-04-19T16:15:01.975Z,2.22
2024-04-19T16:17:32.570Z,2.45
2024-04-19T16:20:04.930Z,2.35
2024-04-19T16:22:36.279Z,2.45
2024-04-19T16:25:09.120Z,2.80
2024-04-19T16:27:39.493Z,2.70
2024-04-19T16:30:11.081Z,3.63
2024-04-19T16:32:41.350Z,2.80
2024-04-19T16:35:11.491Z,3.63
2024-04-19T16:37:43.785Z,2.83
2024-04-19T16:40:16.473Z,3.13
2024-04-19T16:42:48.798Z,3.53
2024-04-19T16:45:20.292Z,4.05
2024-04-19T16:47:53.405Z,3.33
2024-04-19T16:50:23.734Z,2.78
2024-04-19T16:52:53.568Z,3.90
2024-04-19T16:55:26.302Z,2.60
2024-04-19T16:57:56.539Z,3.80
2024-04-19T17:00:26.772Z,3.97
2024-04-19T17:02:56.933Z,3.03
2024-04-19T17:05:27.473Z,3.88
2024-04-19T17:07:57.349Z,3.40
2024-04-19T17:10:30.064Z,3.03
2024-04-19T17:13:01.050Z,3.45
2024-04-19T17:15:31.740Z,3.17
2024-04-19T17:18:04.713Z,3.65
2024-04-19T17:20:35.801Z,3.17
2024-04-19T17:23:10.503Z,3.95
2024-04-19T17:25:43.343Z,3.10
2024-04-19T17:28:13.658Z,3.35
2024-04-19T17:30:46.149Z,3.17
2024-04-19T17:33:18.995Z,3.83
2024-04-19T17:35:49.294Z,3.85
2024-04-19T17:38:20.698Z,3.38
2024-04-19T17:40:53.767Z,3.42
2024-04-19T17:43:23.650Z,2.85
2024-04-19T17:45:53.662Z,4.05
2024-04-19T17:48:26.356Z,4.18
2024-04-19T17:50:56.662Z,3.40
2024-04-19T17:53:26.705Z,3.15
2024-04-19T17:55:59.585Z,2.05
2024-04-19T17:58:29.635Z,3.03
2024-04-19T18:00:59.899Z,1.75
2024-04-19T18:03:30.609Z,1.90
2024-04-19T18:06:00.684Z,2.55
2024-04-19T18:08:30.619Z,2.40
2024-04-19T18:11:04.211Z,2.05
2024-04-19T18:13:34.312Z,2.80
2024-04-19T18:16:09.655Z,1.98
2024-04-19T18:18:39.948Z,2.78
2024-04-19T18:21:10.548Z,2.33
2024-04-19T18:23:40.590Z,3.95
2024-04-19T18:26:13.135Z,2.50
2024-04-19T18:28:42.935Z,2.72
2024-04-19T18:31:13.170Z,2.08
2024-04-19T18:33:45.621Z,2.30
2024-04-19T18:36:18.980Z,2.70
2024-04-19T18:38:49.001Z,2.78
2024-04-19T18:41:24.774Z,3.72
2024-04-19T18:43:55.037Z,2.47
2024-04-19T18:46:25.012Z,3.22
2024-04-19T18:48:55.251Z,3.50
2024-04-19T18:51:28.506Z,2.53
2024-04-19T18:53:58.698Z,2.33
2024-04-19T18:56:31.555Z,1.70
2024-04-19T18:59:01.702Z,2.22
2024-04-19T19:01:32.622Z,2.30
2024-04-19T19:04:03.106Z,2.83
2024-04-19T19:06:34.146Z,2.67
2024-04-19T19:09:04.217Z,2.42
2024-04-19T19:11:37.597Z,2.40
2024-04-19T19:14:07.649Z,3.03
2024-04-19T19:16:39.006Z,3.28
2024-04-19T19:19:10.389Z,3.60
2024-04-19T19:21:40.293Z,2.88
2024-04-19T19:24:11.240Z,4.35
2024-04-19T19:26:43.712Z,5.20
2024-04-19T19:29:21.024Z,2.70
2024-04-19T19:31:51.104Z,4.80
2024-04-19T19:34:20.914Z,5.10
2024-04-19T19:36:51.223Z,4.55
2024-04-19T19:39:23.084Z,6.30
2024-04-19T19:41:58.838Z,7.53
2024-04-19T19:44:34.672Z,5.63
2024-04-19T19:47:04.641Z,5.32
2024-04-19T19:49:35.076Z,4.85
2024-04-19T19:52:05.463Z,5.07
2024-04-19T19:54:35.485Z,4.60
2024-04-19T19:57:08.789Z,6.30
2024-04-19T19:59:54.367Z,5.22
2024-04-19T20:02:51.381Z,5.38
2024-04-19T20:05:36.931Z,4.50
2024-04-19T20:08:07.184Z,4.10
2024-04-19T20:10:37.291Z,6.13
2024-04-19T20:13:10.202Z,5.65
2024-04-19T20:15:40.175Z,6.13
2024-04-19T20:18:10.541Z,6.22
2024-04-19T20:20:40.552Z,5.82
2024-04-19T20:23:10.724Z,5.65
2024-04-19T20:25:40.678Z,5.55
2024-04-19T20:28:13.814Z,6.22
2024-04-19T20:30:44.303Z,6.10
2024-04-19T20:33:14.590Z,5.18
2024-04-19T20:35:44.582Z,6.03
2024-04-19T20:38:14.769Z,6.75
2024-04-19T20:40:44.889Z,5.32
2024-04-19T20:43:20.588Z,7.28
2024-04-19T20:45:51.286Z,6.18
2024-04-19T20:48:21.242Z,6.55
2024-04-19T20:50:51.633Z,7.07
2024-04-19T20:53:21.738Z,6.07
2024-04-19T20:55:51.769Z,6.13
2024-04-19T20:58:24.210Z,5.40
2024-04-19T21:00:54.409Z,4.85
2024-04-19T21:03:24.458Z,6.75
2024-04-19T21:05:54.342Z,6.20
2024-04-19T21:08:24.208Z,5.05
2024-04-19T21:10:54.089Z,5.57
2024-04-19T21:13:26.604Z,4.18
2024-04-19T21:16:12.801Z,6.60
2024-04-19T21:18:45.951Z,4.68
2024-04-19T21:21:16.035Z,4.55
2024-04-19T21:23:47.935Z,4.80
2024-04-19T21:26:15.282Z,4.78
2024-04-19T21:28:47.795Z,5.03
2024-04-19T21:31:17.960Z,4.95
2024-04-19T21:33:47.873Z,3.67
2024-04-19T21:36:18.013Z,5.10
2024-04-19T21:38:48.460Z,4.88
2024-04-19T21:41:18.357Z,5.35
2024-04-19T21:43:51.052Z,4.50
2024-04-19T21:48:50.853Z,4.53
2024-04-19T21:51:21.268Z,4.82
2024-04-19T21:53:51.082Z,4.80
2024-04-19T21:56:18.849Z,4.53
2024-04-19T21:58:53.615Z,4.38
2024-04-19T22:01:23.652Z,4.32
2024-04-19T22:03:53.541Z,4.93
2024-04-19T22:06:23.990Z,5.18
2024-04-19T22:08:51.550Z,4.20
2024-04-19T22:11:22.959Z,5.65
2024-04-19T22:13:55.605Z,4.88
2024-04-19T22:16:26.475Z,5.00
2024-04-19T22:18:56.384Z,4.35
2024-04-19T22:21:26.388Z,5.50
2024-04-19T22:23:56.318Z,4.00
2024-04-19T22:26:26.167Z,5.03
2024-04-19T22:28:58.931Z,4.70
2024-04-19T22:31:29.311Z,5.63
2024-04-19T22:33:59.380Z,6.07
2024-04-19T22:36:29.562Z,4.90
2024-04-19T22:38:59.585Z,5.20
2024-04-19T22:41:29.636Z,5.00
2024-04-19T22:44:02.122Z,5.28
2024-04-19T22:46:32.837Z,5.90
2024-04-19T22:49:03.657Z,5.40
2024-04-19T22:51:33.877Z,5.05
2024-04-19T22:54:03.947Z,4.25
2024-04-19T22:56:34.502Z,5.22
2024-04-19T22:59:07.183Z,4.65
2024-04-19T23:04:08.319Z,5.68
2024-04-19T23:06:38.435Z,5.50
2024-04-19T23:09:09.607Z,4.57
2024-04-19T23:11:39.728Z,5.05
2024-04-19T23:14:12.180Z,6.30
2024-04-19T23:16:43.545Z,5.35
2024-04-19T23:19:11.249Z,4.55
2024-04-19T23:21:41.259Z,4.63
2024-04-19T23:24:12.507Z,3.70
2024-04-19T23:26:43.049Z,4.60
2024-04-19T23:29:15.637Z,4.43
2024-04-19T23:31:46.061Z,3.63
2024-04-19T23:34:16.493Z,4.10
2024-04-19T23:36:46.733Z,4.38
2024-04-19T23:39:17.651Z,4.10
2024-04-19T23:41:48.435Z,4.50
2024-04-19T23:44:21.854Z,4.15
2024-04-19T23:46:52.734Z,5.25
2024-04-19T23:49:23.209Z,4.40
2024-04-19T23:51:55.370Z,3.80
2024-04-19T23:54:26.216Z,4.03
2024-04-19T23:56:56.805Z,4.07
2024-04-19T23:59:29.946Z,3.85
